Time;durP1;ratioP1;P1;durP2;ratioP2;P2;SDS_P1;SDS_P2;PMS_P1;PMS_P2;Temp;Humidity;BMP_temperature;BMP_pressure;BME280_temperature;BME280_humidity;BME280_pressure;Samples;Min_cycle;Max_cycle;Signal;HPM_P1;HPM_P2
2022/06/03 00:03:03;585546.00;1.95;1009.27;0.00;0.00;0.62;;;;;20.50;1.00;;;;;;2284593;60;1068;-85
2022/06/03 00:06:08;0.00;0.00;0.62;0.00;0.00;0.62;;;;;20.30;1.00;;;;;;2284584;60;1411;-85
2022/06/03 00:09:19;0.00;0.00;0.62;0.00;0.00;0.62;;;;;20.40;1.00;;;;;;2284559;60;1995;-84
2022/06/03 00:12:28;240119.00;0.80;414.96;33284.00;0.11;58.27;;;;;20.40;1.00;;;;;;2284519;60;1848;-84
2022/06/03 00:15:13;85736.00;0.29;148.94;0.00;0.00;0.62;;;;;20.40;1.00;;;;;;2284512;60;1310;-85
2022/06/03 00:18:10;57213.00;0.19;99.66;0.00;0.00;0.62;;;;;20.50;1.00;;;;;;2284590;60;1146;-87
2022/06/03 00:20:49;164239.00;0.55;284.34;80453.00;0.27;139.82;;;;;20.80;1.00;;;;;;2283195;60;1151;-85
2022/06/03 00:23:53;22218.00;0.07;39.11;0.00;0.00;0.62;;;;;20.50;1.00;;;;;;2284586;60;1176;-85
2022/06/03 00:26:42;230083.00;0.77;397.69;80513.00;0.27;139.92;;;;;20.30;1.00;;;;;;2284533;60;1307;-84
2022/06/03 00:29:24;179505.00;0.60;310.64;56340.00;0.19;98.15;;;;;20.30;1.00;;;;;;2284455;60;1011;-85
2022/06/03 00:32:11;46441.00;0.15;81.03;0.00;0.00;0.62;;;;;20.10;1.00;;;;;;2284557;60;1022;-88
2022/06/03 00:35:05;28992.00;0.10;50.84;0.00;0.00;0.62;;;;;20.00;1.00;;;;;;2284345;60;1348;-84
2022/06/03 00:37:47;16569.00;0.06;29.33;0.00;0.00;0.62;;;;;20.10;1.00;;;;;;2284468;60;1203;-85
2022/06/03 00:40:38;193009.00;0.64;333.89;15623.00;0.05;27.69;;;;;19.80;1.00;;;;;;2284497;60;1052;-86
2022/06/03 00:43:25;0.00;0.00;0.62;0.00;0.00;0.62;;;;;19.90;1.00;;;;;;2284450;60;1121;-85
2022/06/03 00:46:19;179859.00;0.60;311.25;75926.00;0.25;132.00;;;;;20.00;1.00;;;;;;2284414;60;1433;-85
2022/06/03 00:49:03;173554.00;0.58;300.39;84265.00;0.28;146.40;;;;;19.80;1.00;;;;;;2284489;60;1981;-85
2022/06/03 00:52:12;190551.00;0.64;329.66;83396.00;0.28;144.90;;;;;19.80;1.00;;;;;;2284406;60;1120;-86
2022/06/03 00:55:07;203412.00;0.68;351.80;76954.00;0.26;133.78;;;;;19.90;1.00;;;;;;2280167;60;1729;-84
2022/06/03 00:58:03;358907.00;1.20;619.17;113044.00;0.38;196.08;;;;;19.90;1.00;;;;;;2284402;60;1085;-84
2022/06/03 01:00:35;137034.00;0.46;237.46;0.00;0.00;0.62;;;;;19.90;1.00;;;;;;2284412;60;1022;-84
2022/06/03 01:03:16;0.00;0.00;0.62;0.00;0.00;0.62;;;;;19.90;1.00;;;;;;2284403;60;1136;-84
2022/06/03 01:06:10;126467.00;0.42;219.24;0.00;0.00;0.62;;;;;19.90;1.00;;;;;;2284442;60;1360;-85
2022/06/03 01:08:48;145185.00;0.48;251.51;8762.00;0.03;15.80;;;;;20.00;1.00;;;;;;2284407;60;2001;-85
2022/06/03 01:11:41;0.00;0.00;0.62;0.00;0.00;0.62;;;;;19.80;1.00;;;;;;2284354;60;1020;-85
2022/06/03 01:14:21;193393.00;0.64;334.55;83069.00;0.28;144.34;;;;;19.60;1.00;;;;;;2285011;60;1425;-84
2022/06/03 01:17:09;44004.00;0.15;76.82;0.00;0.00;0.62;;;;;19.60;1.00;;;;;;2285180;60;1127;-84
2022/06/03 01:19:57;208083.00;0.69;359.84;79057.00;0.26;137.41;;;;;19.60;1.00;;;;;;2285159;60;1065;-84
2022/06/03 01:23:07;222765.00;0.74;385.10;70656.00;0.24;122.89;;;;;19.70;1.00;;;;;;2285122;60;1173;-85
2022/06/03 01:25:59;505060.00;1.68;870.54;22018.00;0.07;38.76;;;;;19.80;1.00;;;;;;2285017;60;1478;-85
2022/06/03 01:28:54;642704.00;2.14;1108.02;53886.00;0.18;93.91;;;;;19.50;1.00;;;;;;2284433;60;2006;-85
2022/06/03 01:32:17;506285.00;1.69;872.65;25008.00;0.08;43.94;;;;;19.50;1.00;;;;;;2285095;60;1172;-86
2022/06/03 01:34:59;358323.00;1.19;618.17;18001.00;0.06;31.81;;;;;19.60;1.00;;;;;;2282860;60;1408;-85
2022/06/03 01:37:33;656203.00;2.19;1131.37;49220.00;0.16;85.84;;;;;19.80;1.00;;;;;;2285118;60;1067;-85
2022/06/03 01:40:12;525864.00;1.75;906.37;24497.00;0.08;43.06;;;;;19.80;1.00;;;;;;2285091;60;1090;-86
2022/06/03 01:43:14;438126.00;1.46;755.36;0.00;0.00;0.62;;;;;19.80;1.00;;;;;;2284972;60;1117;-85
2022/06/03 01:46:16;404026.00;1.35;696.73;64142.00;0.21;111.64;;;;;19.60;1.00;;;;;;2283762;60;1389;-86
2022/06/03 01:49:26;1229638.00;4.10;2143.90;115379.00;0.38;200.11;;;;;19.70;1.00;;;;;;2285041;60;1994;-85
2022/06/03 01:52:26;22097.00;0.07;38.90;0.00;0.00;0.62;;;;;19.60;1.00;;;;;;2281730;60;1474;-84
2022/06/03 01:55:25;97927.00;0.33;169.99;0.00;0.00;0.62;;;;;19.60;1.00;;;;;;2284721;60;1275;-85
2022/06/03 01:58:22;355941.00;1.19;614.07;46204.00;0.15;80.62;;;;;19.70;1.00;;;;;;2285003;60;1043;-86
2022/06/03 02:01:00;276816.00;0.92;478.06;0.00;0.00;0.62;;;;;19.50;1.00;;;;;;2285006;60;1558;-85
2022/06/03 02:03:53;419174.00;1.40;722.77;36269.00;0.12;63.43;;;;;19.50;1.00;;;;;;2284992;60;1096;-85
2022/06/03 02:07:01;759074.00;2.53;1309.84;48289.00;0.16;84.23;;;;;19.40;1.00;;;;;;2285026;60;1406;-86
2022/06/03 02:10:20;677554.00;2.26;1168.34;30452.00;0.10;53.37;;;;;19.50;1.00;;;;;;2284972;60;1049;-86
2022/06/03 02:13:21;274888.00;0.92;474.75;0.00;0.00;0.62;;;;;19.50;1.00;;;;;;2284939;60;1152;-85
2022/06/03 02:16:29;96803.00;0.32;168.05;0.00;0.00;0.62;;;;;19.60;1.00;;;;;;2284899;60;1384;-85
2022/06/03 02:19:18;37009.00;0.12;64.71;0.00;0.00;0.62;;;;;19.50;1.00;;;;;;2284950;60;1094;-85
2022/06/03 02:22:26;44066.00;0.15;76.92;0.00;0.00;0.62;;;;;19.70;1.00;;;;;;2284987;60;1072;-85
2022/06/03 02:25:24;0.00;0.00;0.62;0.00;0.00;0.62;;;;;19.60;1.00;;;;;;2269301;60;1446;-83
2022/06/03 02:28:23;19745.00;0.07;34.83;0.00;0.00;0.62;;;;;19.60;1.00;;;;;;2284826;60;1911;-86
2022/06/03 02:31:21;32597.00;0.11;57.08;0.00;0.00;0.62;;;;;19.70;1.00;;;;;;2284927;60;1192;-85
2022/06/03 02:34:16;43840.00;0.15;76.53;0.00;0.00;0.62;;;;;19.40;1.00;;;;;;2284793;60;1127;-83
2022/06/03 02:37:12;0.00;0.00;0.62;0.00;0.00;0.62;;;;;18.90;1.00;;;;;;2284937;60;1091;-84
2022/06/03 02:40:00;179168.00;0.60;310.06;30598.00;0.10;53.62;;;;;18.70;1.00;;;;;;2284848;60;1029;-84
2022/06/03 02:42:54;399020.00;1.33;688.12;16952.00;0.06;29.99;;;;;18.80;1.00;;;;;;2284884;60;1071;-85
2022/06/03 02:45:48;501912.00;1.67;865.12;11179.00;0.04;19.99;;;;;18.80;1.00;;;;;;2284849;60;1406;-85
2022/06/03 02:48:57;468447.00;1.56;807.52;72235.00;0.24;125.62;;;;;18.90;1.00;;;;;;2284776;60;1910;-85
2022/06/03 02:51:42;4077.00;0.01;7.69;0.00;0.00;0.62;;;;;18.80;1.00;;;;;;2268706;60;1195;-85
2022/06/03 02:54:30;95458.00;0.32;165.73;0.00;0.00;0.62;;;;;18.60;1.00;;;;;;2284681;60;1220;-85
2022/06/03 02:57:20;315898.00;1.05;545.25;33833.00;0.11;59.22;;;;;18.80;1.00;;;;;;2284700;60;1146;-84
2022/06/03 03:00:19;373365.00;1.24;644.02;25409.00;0.08;44.64;;;;;18.90;1.00;;;;;;2284778;60;1086;-85
2022/06/03 03:03:09;681283.00;2.27;1174.80;43149.00;0.14;75.34;;;;;18.80;1.00;;;;;;2284800;60;1187;-84
2022/06/03 03:05:59;548024.00;1.83;944.55;112937.00;0.38;195.90;;;;;19.00;1.00;;;;;;2284708;60;1374;-85
2022/06/03 03:08:58;340560.00;1.14;587.64;38692.00;0.13;67.63;;;;;18.80;1.00;;;;;;2284722;60;1912;-85
2022/06/03 03:12:02;53387.00;0.18;93.04;0.00;0.00;0.62;;;;;19.00;1.00;;;;;;2284132;60;1060;-84
2022/06/03 03:14:58;0.00;0.00;0.62;0.00;0.00;0.62;;;;;19.00;1.00;;;;;;2284774;60;1458;-85
2022/06/03 03:17:48;77356.00;0.26;134.47;0.00;0.00;0.62;;;;;19.00;1.00;;;;;;2284762;60;1046;-85
2022/06/03 03:20:56;82686.00;0.28;143.68;4265.00;0.01;8.01;;;;;19.10;1.00;;;;;;2284771;60;1112;-86
2022/06/03 03:24:15;289176.00;0.96;499.31;0.00;0.00;0.62;;;;;19.30;1.00;;;;;;2281367;60;1308;-85
2022/06/03 03:26:54;79924.00;0.27;138.91;0.00;0.00;0.62;;;;;19.40;1.00;;;;;;2284755;60;1061;-84
2022/06/03 03:29:44;53318.00;0.18;92.92;0.00;0.00;0.62;;;;;19.20;1.00;;;;;;2284753;60;1995;-84
2022/06/03 03:32:29;295.00;0.00;1.13;0.00;0.00;0.62;;;;;19.20;1.00;;;;;;2284726;60;1141;-83
2022/06/03 03:35:18;62897.00;0.21;109.48;0.00;0.00;0.62;;;;;19.10;1.00;;;;;;2284578;60;1446;-84
2022/06/03 03:38:16;44210.00;0.15;77.17;0.00;0.00;0.62;;;;;19.00;1.00;;;;;;2284721;60;1060;-84
2022/06/03 03:41:21;370547.00;1.24;639.18;54150.00;0.18;94.36;;;;;19.00;1.00;;;;;;2284709;60;1199;-84
2022/06/03 03:44:45;643220.00;2.14;1108.91;0.00;0.00;0.62;;;;;19.00;1.00;;;;;;2284696;60;978;-85
2022/06/03 03:47:52;0.00;0.00;0.62;0.00;0.00;0.62;;;;;19.00;1.00;;;;;;2284709;60;1136;-85
2022/06/03 03:50:52;0.00;0.00;0.62;0.00;0.00;0.62;;;;;18.90;1.00;;;;;;2284681;60;1153;-84
2022/06/03 03:53:59;0.00;0.00;0.62;0.00;0.00;0.62;;;;;19.10;1.00;;;;;;2284574;60;1193;-84
2022/06/03 03:57:20;97968.00;0.33;170.06;0.00;0.00;0.62;;;;;19.10;1.00;;;;;;2284579;60;1327;-84
2022/06/03 04:00:21;125237.00;0.42;217.12;0.00;0.00;0.62;;;;;19.10;1.00;;;;;;2284598;60;1074;-85
2022/06/03 04:03:37;323102.00;1.08;557.63;25423.00;0.08;44.66;;;;;19.20;1.00;;;;;;2276187;60;1218;-87
2022/06/03 04:06:46;48489.00;0.16;84.57;0.00;0.00;0.62;;;;;18.90;1.00;;;;;;2284569;60;1465;-84
2022/06/03 04:10:05;56334.00;0.19;98.14;0.00;0.00;0.62;;;;;18.80;1.00;;;;;;2284307;60;1913;-85
2022/06/03 04:13:10;274678.00;0.92;474.39;0.00;0.00;0.62;;;;;19.00;1.00;;;;;;2284487;60;1126;-85
2022/06/03 04:16:10;160601.00;0.54;278.07;5832.00;0.02;10.73;;;;;19.20;1.00;;;;;;2284296;60;1461;-85
2022/06/03 04:19:00;13629.00;0.05;24.24;0.00;0.00;0.62;;;;;19.10;1.00;;;;;;2284623;60;1052;-85
2022/06/03 04:22:04;306144.00;1.02;528.48;0.00;0.00;0.62;;;;;19.10;1.00;;;;;;2281847;60;1392;-84
2022/06/03 04:25:11;229351.00;0.76;396.43;0.00;0.00;0.62;;;;;19.00;1.00;;;;;;2281188;60;1692;-84
2022/06/03 04:28:08;397824.00;1.33;686.06;11767.00;0.04;21.01;;;;;19.10;1.00;;;;;;2283815;60;2191;-85
2022/06/03 04:31:06;705235.00;2.35;1216.32;174647.00;0.58;302.27;;;;;19.20;1.00;;;;;;2284269;60;1247;-84
2022/06/03 04:34:17;377007.00;1.26;650.28;52508.00;0.18;91.52;;;;;19.30;1.00;;;;;;2284437;60;1109;-85
2022/06/03 04:37:25;57025.00;0.19;99.33;0.00;0.00;0.62;;;;;19.40;1.00;;;;;;2280065;60;1178;-87
2022/06/03 04:40:34;37905.00;0.13;66.26;0.00;0.00;0.62;;;;;19.50;1.00;;;;;;2284454;60;1112;-85
2022/06/03 04:43:51;58359.00;0.19;101.64;0.00;0.00;0.62;;;;;19.80;1.00;;;;;;2281026;60;1515;-86
2022/06/03 04:47:12;14724.00;0.05;26.13;0.00;0.00;0.62;;;;;20.00;1.00;;;;;;2284177;60;1379;-86
2022/06/03 04:50:10;0.00;0.00;0.62;0.00;0.00;0.62;;;;;19.90;1.00;;;;;;2284348;60;1985;-84
2022/06/03 04:53:16;338534.00;1.13;584.15;64457.00;0.21;112.18;;;;;20.00;1.00;;;;;;2284420;60;1156;-86
2022/06/03 04:56:25;0.00;0.00;0.62;0.00;0.00;0.62;;;;;20.40;1.00;;;;;;2284428;60;1277;-86
2022/06/03 04:59:42;93579.00;0.31;162.49;0.00;0.00;0.62;;;;;20.70;1.00;;;;;;2271447;60;1074;-86
2022/06/03 05:02:51;476652.00;1.59;821.64;59639.00;0.20;103.85;;;;;20.50;1.00;;;;;;2284330;60;1094;-86
2022/06/03 05:06:06;48896.00;0.16;85.28;0.00;0.00;0.62;;;;;20.20;1.00;;;;;;2265505;61;1484;-86
2022/06/03 05:09:05;112755.00;0.38;195.58;0.00;0.00;0.62;;;;;20.40;1.00;;;;;;2284375;60;1996;-85
2022/06/03 05:12:14;112932.00;0.38;195.89;45178.00;0.15;78.85;;;;;20.30;1.00;;;;;;2284399;60;1163;-86
2022/06/03 05:15:26;86348.00;0.29;150.00;0.00;0.00;0.62;;;;;20.60;1.00;;;;;;2283043;60;1309;-85
2022/06/03 05:18:17;148055.00;0.49;256.46;0.00;0.00;0.62;;;;;21.10;1.00;;;;;;2284294;60;1162;-86
2022/06/03 05:21:20;46396.00;0.15;80.95;0.00;0.00;0.62;;;;;21.40;1.00;;;;;;2284354;60;1041;-85
2022/06/03 05:24:10;0.00;0.00;0.62;0.00;0.00;0.62;;;;;21.40;1.00;;;;;;2284248;60;1163;-87
2022/06/03 05:27:06;0.00;0.00;0.62;0.00;0.00;0.62;;;;;21.30;1.00;;;;;;2284296;60;1582;-86
2022/06/03 05:30:19;250088.00;0.83;432.10;16367.00;0.05;28.98;;;;;21.40;1.00;;;;;;2283959;60;2173;-87
2022/06/03 05:33:17;29304.00;0.10;51.38;0.00;0.00;0.62;;;;;21.40;1.00;;;;;;2284421;60;1088;-86
2022/06/03 05:36:21;61697.00;0.21;107.41;0.00;0.00;0.62;;;;;21.80;1.00;;;;;;2284247;60;1368;-84
2022/06/03 05:39:20;0.00;0.00;0.62;0.00;0.00;0.62;;;;;21.90;1.00;;;;;;2284256;60;927;-86
2022/06/03 05:42:24;0.00;0.00;0.62;0.00;0.00;0.62;;;;;23.00;1.00;;;;;;2283075;60;1711;-84
2022/06/03 05:45:24;14532.00;0.05;25.80;0.00;0.00;0.62;;;;;24.70;1.00;;;;;;2284157;60;2202;-85
2022/06/03 05:47:58;0.00;0.00;0.62;0.00;0.00;0.62;;;;;26.60;1.00;;;;;;2284336;60;1043;-87
2022/06/03 05:50:43;0.00;0.00;0.62;0.00;0.00;0.62;;;;;28.10;1.00;;;;;;2284293;60;1149;-87
2022/06/03 05:53:27;0.00;0.00;0.62;0.00;0.00;0.62;;;;;29.80;1.00;;;;;;2284259;60;1001;-86
2022/06/03 05:56:14;0.00;0.00;0.62;0.00;0.00;0.62;;;;;30.80;1.00;;;;;;2284352;60;1450;-87
2022/06/03 05:58:49;148781.00;0.50;257.71;46722.00;0.16;81.52;;;;;31.40;1.00;;;;;;2284528;60;1126;-86
2022/06/03 06:01:45;0.00;0.00;0.62;0.00;0.00;0.62;;;;;31.60;1.00;;;;;;2284975;60;1088;-88
2022/06/03 06:04:26;146513.00;0.49;253.80;0.00;0.00;0.62;;;;;32.10;1.00;;;;;;2282289;60;1934;-88
2022/06/03 06:07:04;0.00;0.00;0.62;0.00;0.00;0.62;;;;;32.50;1.00;;;;;;2284971;60;964;-86
2022/06/03 06:09:55;92389.00;0.31;160.43;0.00;0.00;0.62;;;;;32.70;1.00;;;;;;2284914;60;1976;-86
2022/06/03 06:12:43;0.00;0.00;0.62;0.00;0.00;0.62;;;;;33.00;1.00;;;;;;2284898;60;1075;-86
2022/06/03 06:15:35;93970.00;0.31;163.16;0.00;0.00;0.62;;;;;33.50;1.00;;;;;;2284814;60;1428;-87
2022/06/03 06:18:14;0.00;0.00;0.62;0.00;0.00;0.62;;;;;33.40;1.00;;;;;;2284903;60;1426;-86
2022/06/03 06:20:54;275589.00;0.92;475.95;0.00;0.00;0.62;;;;;33.90;1.00;;;;;;2284756;60;961;-87
2022/06/03 06:23:38;0.00;0.00;0.62;0.00;0.00;0.62;;;;;34.50;1.00;;;;;;2284806;60;1047;-86
2022/06/03 06:26:38;197165.00;0.66;341.04;67580.00;0.23;117.58;;;;;34.60;1.00;;;;;;2284828;60;1383;-86
2022/06/03 06:29:54;164221.00;0.55;284.31;61985.00;0.21;107.91;;;;;34.80;1.00;;;;;;2278626;60;2006;-86
2022/06/03 06:32:47;191588.00;0.64;331.44;68435.00;0.23;119.06;;;;;34.90;1.00;;;;;;2275611;60;1439;-87
2022/06/03 06:36:05;417164.00;1.39;719.31;140387.00;0.47;243.24;;;;;34.50;1.00;;;;;;2284881;60;1475;-87
2022/06/03 06:38:47;425221.00;1.42;733.17;80581.00;0.27;140.04;;;;;34.60;1.00;;;;;;2284861;60;1060;-85
2022/06/03 06:41:27;33503.00;0.11;58.65;0.00;0.00;0.62;;;;;35.90;1.00;;;;;;2284862;60;1083;-87
2022/06/03 06:44:03;233288.00;0.78;403.21;45225.00;0.15;78.93;;;;;35.50;1.00;;;;;;2284821;60;1090;-88
2022/06/03 06:46:45;230540.00;0.77;398.48;0.00;0.00;0.62;;;;;35.80;1.00;;;;;;2284827;60;1493;-87
2022/06/03 06:49:24;274549.00;0.92;474.17;119881.00;0.40;207.88;;;;;36.30;1.00;;;;;;2284674;60;1988;-87
2022/06/03 06:52:31;31989.00;0.11;56.03;0.00;0.00;0.62;;;;;36.20;1.00;;;;;;2284542;60;1090;-91
2022/06/03 06:55:08;252140.00;0.84;435.63;73046.00;0.24;127.02;;;;;36.20;1.00;;;;;;2284633;60;1296;-89
2022/06/03 06:57:40;196391.00;0.65;339.71;62525.00;0.21;108.84;;;;;36.60;1.00;;;;;;2284736;60;951;-85
2022/06/03 07:00:18;221453.00;0.74;382.84;70234.00;0.23;122.16;;;;;36.50;1.00;;;;;;2284567;60;1125;-87
2022/06/03 07:02:52;19725.00;0.07;34.79;0.00;0.00;0.62;;;;;36.80;1.00;;;;;;2284659;60;1111;-85
2022/06/03 07:05:26;222294.00;0.74;384.29;69962.00;0.23;121.69;;;;;36.30;1.00;;;;;;2284548;60;1455;-87
2022/06/03 07:07:59;1986.00;0.01;4.06;0.00;0.00;0.62;;;;;36.40;1.00;;;;;;2284725;60;1602;-86
2022/06/03 07:10:30;113771.00;0.38;197.34;11177.00;0.04;19.99;;;;;36.80;1.00;;;;;;2284472;60;1998;-86
2022/06/03 07:13:04;37271.00;0.12;65.17;0.00;0.00;0.62;;;;;36.90;1.00;;;;;;2284766;60;1029;-86
2022/06/03 07:15:57;15745.00;0.05;27.90;0.00;0.00;0.62;;;;;36.50;1.00;;;;;;2284734;60;1503;-87
2022/06/03 07:21:40;0.00;0.00;0.62;0.00;0.00;0.62;;;;;36.10;1.00;;;;;;2284687;60;684;-87
2022/06/03 07:24:16;207754.00;0.69;359.27;70078.00;0.23;121.90;;;;;35.90;1.00;;;;;;2284747;60;1403;-86
2022/06/03 07:26:49;7283.00;0.02;13.24;0.00;0.00;0.62;;;;;36.10;1.00;;;;;;2284689;60;1033;-87
2022/06/03 07:29:22;30446.00;0.10;53.36;0.00;0.00;0.62;;;;;36.70;1.00;;;;;;2284646;60;1980;-85
2022/06/03 07:31:57;25610.00;0.09;44.98;0.00;0.00;0.62;;;;;36.80;1.00;;;;;;2284816;60;1041;-86
2022/06/03 07:34:31;0.00;0.00;0.62;0.00;0.00;0.62;;;;;36.90;1.00;;;;;;2284559;60;1398;-86
2022/06/03 07:37:05;21021.00;0.07;37.04;0.00;0.00;0.62;;;;;37.30;1.00;;;;;;2284530;60;1141;-86
2022/06/03 07:39:54;502892.00;1.68;866.80;218596.00;0.73;377.93;;;;;37.80;1.00;;;;;;2284565;60;1006;-86
2022/06/03 07:42:34;0.00;0.00;0.62;0.00;0.00;0.62;;;;;37.90;1.00;;;;;;2284579;60;1180;-86
2022/06/03 07:45:27;179411.00;0.60;310.48;65947.00;0.22;114.76;;;;;38.90;1.00;;;;;;2284672;60;1368;-86
2022/06/03 07:47:54;1151658.00;3.84;2003.06;132944.00;0.44;230.41;;;;;37.60;1.00;;;;;;2284702;60;1010;-86
2022/06/03 07:50:24;118208728.00;394.03;66909096.00;94284.00;0.31;163.70;;;;;36.70;1.00;;;;;;2284588;60;1998;-86
2022/06/03 07:52:55;315137.00;1.05;543.94;130569.00;0.44;226.31;;;;;37.10;1.00;;;;;;2284666;60;2035;-86
2022/06/03 07:55:24;211047.00;0.70;364.94;60457.00;0.20;105.27;;;;;37.10;1.00;;;;;;2284579;60;1398;-86
2022/06/03 07:57:55;119961152.00;399.87;69931984.00;58318.00;0.19;101.57;;;;;37.60;1.00;;;;;;2284668;60;1043;-87
2022/06/03 08:00:23;271362.00;0.90;468.69;55991.00;0.19;97.55;;;;;37.10;1.00;;;;;;2284652;60;1211;-88
2022/06/03 08:03:02;202389.00;0.67;350.04;64565.00;0.22;112.37;;;;;36.70;1.00;;;;;;2284531;60;1082;-86
2022/06/03 08:05:31;194281.00;0.65;336.08;52142.00;0.17;90.89;;;;;36.80;1.00;;;;;;2284491;60;1479;-86
2022/06/03 08:11:00;414097.00;1.38;714.04;11988.00;0.04;21.39;;;;;36.10;1.00;;;;;;2284654;60;1997;-87
2022/06/03 08:13:43;406821.00;1.36;701.53;64741.00;0.22;112.67;;;;;35.60;1.00;;;;;;2284467;60;1030;-87
2022/06/03 08:16:16;134578608.00;448.60;98770352.00;52964.00;0.18;92.31;;;;;35.50;1.00;;;;;;2284587;60;1497;-87
2022/06/03 08:18:45;2251049.00;7.50;4153.20;364199.00;1.21;628.27;;;;;35.80;1.00;;;;;;2284465;60;1988;-87
2022/06/03 08:21:16;1120073.00;3.73;1946.36;50869.00;0.17;88.69;;;;;35.20;1.00;;;;;;2284403;60;1192;-85
2022/06/03 08:23:45;1102980.00;3.68;1915.75;148655.00;0.50;257.49;;;;;35.50;1.00;;;;;;2284580;60;1086;-86
2022/06/03 08:26:15;1004106.00;3.35;1739.75;109893.00;0.37;190.65;;;;;35.50;1.00;;;;;;2284398;60;1406;-87
2022/06/03 08:28:49;1148952.00;3.83;1998.19;198434.00;0.66;343.23;;;;;35.20;1.00;;;;;;2284529;60;1026;-87
2022/06/03 08:31:23;514056.00;1.71;886.03;72552.00;0.24;126.17;;;;;35.20;1.00;;;;;;2284569;60;1058;-87
2022/06/03 08:33:55;472505.00;1.58;814.50;78012.00;0.26;135.60;;;;;35.30;1.00;;;;;;2284454;60;1058;-85
2022/06/03 08:36:27;599627.00;2.00;1033.58;67464.00;0.22;117.38;;;;;35.60;1.00;;;;;;2284373;60;1622;-87
2022/06/03 08:38:58;1099576.00;3.67;1909.67;133797.00;0.45;231.88;;;;;36.80;1.00;;;;;;2284483;60;1031;-86
2022/06/03 08:41:58;642859.00;2.14;1108.28;66067.00;0.22;114.96;;;;;36.30;1.00;;;;;;2284553;60;1119;-86
2022/06/03 08:44:38;298955.00;1.00;516.12;0.00;0.00;0.62;;;;;35.90;1.00;;;;;;2284269;60;1360;-86
2022/06/03 08:47:12;305094.00;1.02;526.68;0.00;0.00;0.62;;;;;35.50;1.00;;;;;;2284392;60;1889;-86
2022/06/03 08:49:55;424860.00;1.42;732.55;66279.00;0.22;115.33;;;;;35.50;1.00;;;;;;2284334;60;2005;-85
2022/06/03 08:52:31;526078.00;1.75;906.73;10065.00;0.03;18.06;;;;;34.90;1.00;;;;;;2284470;60;1105;-86
2022/06/03 08:55:05;858995.00;2.86;1484.21;85772.00;0.29;149.01;;;;;35.00;1.00;;;;;;2284307;60;1316;-87
2022/06/03 08:57:41;599958.00;2.00;1034.15;162867.00;0.54;281.98;;;;;35.00;1.00;;;;;;2284420;60;1113;-87
2022/06/03 09:00:13;483147.00;1.61;832.81;52840.00;0.18;92.10;;;;;34.70;1.00;;;;;;2284319;60;1707;-86
2022/06/03 09:02:46;415062.00;1.38;715.70;64370.00;0.21;112.03;;;;;34.80;1.00;;;;;;2283870;60;1107;-87
2022/06/03 09:05:22;170892.00;0.57;295.80;64277.00;0.21;111.87;;;;;34.20;1.00;;;;;;2284260;60;1476;-87
2022/06/03 09:07:58;499536.00;1.67;861.02;62809.00;0.21;109.33;;;;;32.80;1.00;;;;;;2284438;60;1105;-88
2022/06/03 09:10:32;652175.00;2.17;1124.40;124724.00;0.42;216.23;;;;;31.90;1.00;;;;;;2284336;60;2022;-87
2022/06/03 09:13:07;903579.00;3.01;1562.41;63053.00;0.21;109.75;;;;;32.20;1.00;;;;;;2284340;60;1114;-87
2022/06/03 09:15:37;433974.00;1.45;748.22;53027.00;0.18;92.42;;;;;32.40;1.00;;;;;;2283774;60;1453;-86
2022/06/03 09:18:10;539172.00;1.80;929.30;131411.00;0.44;227.76;;;;;32.60;1.00;;;;;;2284356;60;1083;-87
2022/06/03 09:20:44;725062.00;2.42;1250.73;95050.00;0.32;165.03;;;;;31.70;1.00;;;;;;2284393;60;1629;-86
2022/06/03 09:23:19;891115.00;2.97;1540.52;81531.00;0.27;141.68;;;;;31.30;1.00;;;;;;2284283;60;1050;-87
2022/06/03 09:25:50;792605.00;2.64;1368.23;56324.00;0.19;98.12;;;;;31.30;1.00;;;;;;2284377;60;1498;-86
2022/06/03 09:28:23;1083094.00;3.61;1880.22;257008.00;0.86;444.00;;;;;31.20;1.00;;;;;;2284397;60;1119;-87
2022/06/03 09:30:52;1018059.00;3.39;1764.48;147301.00;0.49;255.16;;;;;31.20;1.00;;;;;;2284241;60;1997;-86
2022/06/03 09:33:23;947803.00;3.16;1640.24;187483.00;0.62;324.37;;;;;30.70;1.00;;;;;;2284137;60;1654;-87
2022/06/03 09:35:55;927403.00;3.09;1604.30;171583.00;0.57;296.99;;;;;30.50;1.00;;;;;;2284971;60;1390;-87
2022/06/03 09:38:27;1142313.00;3.81;1986.26;186713.00;0.62;323.05;;;;;31.00;1.00;;;;;;2285028;60;1227;-86
2022/06/03 09:40:59;761268.00;2.54;1313.66;34653.00;0.12;60.64;;;;;31.40;1.00;;;;;;2285022;60;1018;-87
2022/06/03 09:43:31;699856.00;2.33;1206.99;16994.00;0.06;30.06;;;;;30.70;1.00;;;;;;2285073;60;1111;-87
2022/06/03 09:46:00;668731.00;2.23;1153.06;57910.00;0.19;100.86;;;;;30.60;1.00;;;;;;2284992;60;1409;-87
2022/06/03 09:48:32;680758.00;2.27;1173.89;19787.00;0.07;34.90;;;;;30.50;1.00;;;;;;2285093;60;1003;-86
2022/06/03 09:51:04;736553.00;2.46;1270.69;101509.00;0.34;176.18;;;;;30.50;1.00;;;;;;2284900;60;1909;-86
2022/06/03 09:53:36;1041702.00;3.47;1806.47;61598.00;0.21;107.24;;;;;30.70;1.00;;;;;;2284967;60;1129;-86
2022/06/03 09:56:07;776626.00;2.59;1340.39;81455.00;0.27;141.55;;;;;30.50;1.00;;;;;;2284992;60;1513;-85
2022/06/03 09:58:36;728758.00;2.43;1257.14;61626.00;0.21;107.29;;;;;30.20;1.00;;;;;;2285055;60;1162;-86
2022/06/03 10:01:09;1197494.00;3.99;2085.69;180666.00;0.60;312.64;;;;;30.60;1.00;;;;;;2284934;60;1090;-86
2022/06/03 10:03:36;455839.00;1.52;785.83;10302.00;0.03;18.47;;;;;30.70;1.00;;;;;;2283754;61;1146;-84
2022/06/03 10:06:05;564757.00;1.88;973.40;22674.00;0.08;39.90;;;;;30.90;1.00;;;;;;2283275;61;1609;-84
2022/06/03 10:14:00;141664.00;0.47;245.44;0.00;0.00;0.62;;;;;29.90;1.00;;;;;;2282652;61;1436;-85
2022/06/03 10:16:28;306362.00;1.02;528.86;66698.00;0.22;116.05;;;;;30.50;1.00;;;;;;2284031;61;1278;-85
2022/06/03 10:18:56;258527.00;0.86;446.62;69435.00;0.23;120.78;;;;;30.60;1.00;;;;;;2282326;61;1145;-85
2022/06/03 10:21:33;193277.00;0.64;334.35;65523.00;0.22;114.02;;;;;30.90;1.00;;;;;;2283327;61;1170;-85
2022/06/03 10:24:05;554267.00;1.85;955.32;92681.00;0.31;160.94;;;;;31.40;1.00;;;;;;2283169;61;1198;-86
2022/06/03 10:26:38;462167.00;1.54;796.71;67566.00;0.23;117.55;;;;;31.20;1.00;;;;;;2283112;61;1481;-85
2022/06/03 10:29:09;621084.00;2.07;1070.64;72321.00;0.24;125.77;;;;;31.60;1.00;;;;;;2282876;61;1179;-84
2022/06/03 10:31:37;254554.00;0.85;439.78;68076.00;0.23;118.44;;;;;31.20;1.00;;;;;;2282817;61;2012;-85
2022/06/03 10:34:10;217346.00;0.72;375.78;64833.00;0.22;112.83;;;;;30.90;1.00;;;;;;2283085;61;1105;-85
2022/06/03 10:36:41;164045.00;0.55;284.01;69213.00;0.23;120.40;;;;;30.60;1.00;;;;;;2284427;60;1143;-85
2022/06/03 10:39:14;273974.00;0.91;473.18;61401.00;0.20;106.90;;;;;30.80;1.00;;;;;;2282962;61;1141;-84
2022/06/03 10:41:43;573001.00;1.91;987.62;71111.00;0.24;123.68;;;;;30.90;1.00;;;;;;2282729;61;1140;-84
2022/06/03 10:44:13;380426.00;1.27;656.16;70818.00;0.24;123.17;;;;;31.10;1.00;;;;;;2283191;61;1304;-85
2022/06/03 10:46:53;431270.00;1.44;743.57;73129.00;0.24;127.17;;;;;31.00;1.00;;;;;;2283054;61;1109;-83
2022/06/03 10:49:22;387204.00;1.29;667.81;0.00;0.00;0.62;;;;;31.10;1.00;;;;;;2282783;61;1154;-85
2022/06/03 11:02:55;216371.00;0.72;374.10;0.00;0.00;0.62;;;;;31.80;1.00;;;;;;2283126;61;680;-85
2022/06/03 11:05:26;180455.00;0.60;312.27;53772.00;0.18;93.71;;;;;32.50;1.00;;;;;;2282584;60;1362;-84
2022/06/03 11:08:00;237639.00;0.79;410.69;60302.00;0.20;105.00;;;;;31.90;1.00;;;;;;2282250;61;1091;-85
2022/06/03 11:10:39;387827.00;1.29;668.88;68450.00;0.23;119.08;;;;;31.80;1.00;;;;;;2281859;61;1934;-84
2022/06/03 11:13:09;164640.00;0.55;285.03;55693.00;0.19;97.03;;;;;32.30;1.00;;;;;;2282309;61;1161;-85
2022/06/03 11:15:38;0.00;0.00;0.62;0.00;0.00;0.62;;;;;32.20;1.00;;;;;;2281384;61;1332;-84
2022/06/03 11:18:16;63366.00;0.21;110.30;0.00;0.00;0.62;;;;;32.50;1.00;;;;;;2282420;61;1203;-86
2022/06/03 11:20:44;0.00;0.00;0.62;0.00;0.00;0.62;;;;;32.20;1.00;;;;;;2284583;60;1166;-84
2022/06/03 11:23:13;0.00;0.00;0.62;0.00;0.00;0.62;;;;;32.10;1.00;;;;;;2282623;60;1577;-85
2022/06/03 11:25:45;0.00;0.00;0.62;0.00;0.00;0.62;;;;;31.80;1.00;;;;;;2281668;61;1346;-85
2022/06/03 11:28:18;0.00;0.00;0.62;0.00;0.00;0.62;;;;;31.70;1.00;;;;;;2283722;60;1166;-88
2022/06/03 11:30:49;459536.00;1.53;792.19;167723.00;0.56;290.34;;;;;31.70;1.00;;;;;;2284672;60;2010;-87